Date,TemperatureHighF,TemperatureAvgF,TemperatureLowF,DewpointHighF,DewpointAvgF,DewpointLowF,HumidityHigh,HumidityAvg,HumidityLow,PressureMaxIn,PressureMinIn,WindSpeedMaxMPH,WindSpeedAvgMPH,GustSpeedMaxMPH,PrecipitationSumIn
2013-1-1,45.8,41.9,37.3,44.2,38.6,22.7,98,89,47,30.16,30.00,16,0,16,0.74
2013-1-2,44.2,37.6,34.3,43.7,36.1,33.2,98,94,89,30.20,29.98,16,1,16,0.02
2013-1-3,40.9,34.2,30.5,34.9,30.2,23.0,97,86,65,30.40,30.15,9,1,12,0.00
2013-1-4,40.9,31.9,25.2,29.2,23.0,17.7,91,71,42,30.47,30.36,24,1,24,0.00
2013-1-5,50.7,36.7,25.3,34.0,25.1,20.5,86,65,37,30.49,30.27,15,0,15,0.01
2013-1-6,47.4,39.0,35.3,40.3,34.5,29.4,97,84,69,30.31,30.13,14,1,14,0.02
2013-1-7,54.7,39.5,27.5,33.2,27.9,23.3,93,66,41,30.45,30.27,16,1,16,0.00
2013-1-8,54.9,42.4,32.0,42.8,33.4,25.8,87,71,55,30.49,30.34,11,0,11,0.00
2013-1-9,52.4,49.2,45.9,51.2,46.5,41.5,96,91,81,30.48,30.37,4,0,5,0.01
2013-1-10,64.3,55.7,48.7,53.8,50.9,47.6,98,85,66,30.47,30.21,18,0,18,0.00
2013-1-11,61.5,58.7,55.7,59.2,56.1,51.9,98,91,78,30.22,30.08,20,2,20,0.17
2013-1-12,66.3,61.9,58.6,62.2,59.2,54.1,99,91,82,30.16,30.02,19,1,19,0.06
2013-1-13,64.0,61.5,58.4,58.4,55.5,52.8,98,81,72,30.08,29.97,24,2,24,0.70
2013-1-14,58.4,50.8,43.4,57.5,50.2,42.9,99,98,96,30.22,29.99,9,0,9,2.91
2013-1-15,59.9,51.2,43.8,59.6,51.0,43.3,100,99,98,30.18,29.93,19,0,19,1.91
2013-1-16,60.9,54.9,49.8,59.7,53.9,49.2,100,96,91,30.01,29.87,25,1,25,0.53
2013-1-17,49.7,42.3,31.7,49.4,41.5,28.6,100,97,87,30.33,29.72,18,1,18,1.59
2013-1-18,50.9,37.4,28.5,33.5,27.5,19.3,90,69,40,30.53,30.32,7,0,7,0.00
2013-1-19,54.7,40.2,29.0,33.7,27.1,15.3,90,63,22,30.51,30.24,12,1,13,0.00
2013-1-20,57.7,44.1,35.9,38.0,29.5,21.7,67,57,39,30.24,30.11,19,2,19,0.00
2013-1-21,46.9,36.7,26.6,32.8,23.5,13.4,85,60,39,30.20,30.09,20,2,20,0.00
2013-1-22,33.2,24.7,18.1,14.3,6.7,0.3,65,47,28,30.42,30.17,20,3,20,0.00
2013-1-23,47.2,34.6,25.4,32.0,20.5,8.0,72,56,45,30.41,30.16,19,2,19,0.00
2013-1-24,42.7,34.9,26.6,35.2,19.9,8.8,79,56,33,30.43,30.13,26,4,26,0.00
2013-1-25,40.2,29.1,22.5,39.7,23.9,10.8,98,82,51,30.44,30.18,10,0,10,0.13
2013-1-26,50.8,38.8,31.4,37.2,28.5,22.3,97,69,34,30.38,30.21,13,1,13,0.21
2013-1-27,49.7,39.7,29.4,37.0,30.7,25.6,87,71,50,30.52,30.36,10,0,10,0.00
2013-1-28,57.9,47.5,39.9,50.4,40.6,31.6,86,77,69,30.45,30.27,20,1,26,0.00
2013-1-29,61.6,54.3,46.2,57.6,50.0,44.1,95,85,72,30.29,29.91,12,1,12,0.02
2013-1-30,65.5,57.5,38.8,60.3,53.5,35.5,97,87,78,29.92,29.50,31,4,31,2.77
2013-1-31,37.4,34.1,27.8,33.4,23.1,20.4,90,64,52,30.15,29.67,25,4,26,0.03
2013-2-1,39.6,25.8,18.6,29.5,14.6,5.4,90,63,43,30.48,30.05,27,4,27,0.00
2013-2-2,34.1,25.5,19.4,30.7,19.5,5.6,95,79,51,30.46,30.14,19,1,19,0.00
2013-2-3,38.2,33.4,28.4,33.1,27.6,22.2,95,79,67,30.18,30.04,21,2,21,0.16
2013-2-4,43.5,35.0,25.9,32.0,24.5,16.9,82,66,51,30.22,30.03,15,0,15,0.08
2013-2-5,56.4,43.5,36.1,43.5,34.4,25.5,93,71,47,30.08,29.95,9,0,9,0.01
2013-2-6,59.0,48.0,39.7,39.5,30.3,21.8,81,54,26,30.22,30.04,18,1,18,0.00
2013-2-7,47.2,43.2,40.0,41.6,34.7,24.8,95,73,52,30.21,29.97,13,1,13,0.18
2013-2-8,48.3,41.4,32.3,44.5,38.4,28.1,97,89,68,30.25,29.94,15,1,17,0.06
2013-2-9,58.7,42.6,27.2,33.3,26.7,18.6,90,57,30,30.38,30.21,14,1,14,0.00
2013-2-10,55.0,44.3,40.8,45.3,31.6,23.8,98,64,31,30.35,30.09,17,1,17,0.81
2013-2-11,53.6,48.7,44.0,51.3,42.4,23.5,99,81,41,30.14,30.04,16,0,16,0.24
2013-2-12,52.2,43.7,38.7,37.7,31.6,23.9,93,64,42,30.17,29.89,13,1,13,0.15
2013-2-13,45.1,38.7,33.2,43.9,36.6,30.4,98,92,82,29.99,29.72,21,2,21,0.14
2013-2-14,53.6,39.4,30.9,35.9,30.4,27.1,91,72,42,30.13,29.99,17,1,17,0.00
2013-2-15,53.9,39.3,31.1,38.8,33.0,28.2,92,79,48,30.18,30.00,18,1,18,0.11
2013-2-16,33.0,27.3,21.1,29.6,22.1,13.0,88,81,67,30.18,30.00,16,2,16,0.00
2013-2-17,33.4,25.8,17.3,16.6,12.9,10.2,76,59,43,30.34,30.17,22,2,22,0.01
2013-2-18,54.3,37.8,24.2,30.0,22.2,13.6,75,54,37,30.44,30.13,17,1,17,0.00
2013-2-19,48.2,38.9,31.0,41.9,27.7,16.5,97,67,36,30.18,29.96,26,3,26,0.44
2013-2-20,42.4,33.4,26.9,19.8,10.1,-1.1,63,41,17,30.25,30.17,18,2,18,0.00
2013-2-21,60.2,41.7,26.5,38.4,23.6,12.0,94,52,26,30.29,30.02,13,0,13,0.60
2013-2-22,44.0,40.4,37.1,43.2,38.8,35.1,97,94,89,30.20,30.06,19,1,19,0.38
2013-2-23,53.9,47.8,42.6,51.8,44.7,34.1,99,90,59,30.09,29.85,10,0,10,0.42
2013-2-24,56.9,45.3,37.5,40.0,31.2,24.5,90,60,34,30.08,29.90,19,2,19,0.00
2013-2-25,51.1,41.6,32.5,40.8,31.0,25.1,90,67,49,30.12,29.89,18,1,18,0.00
2013-2-26,58.2,46.1,36.6,51.0,41.6,32.4,98,85,70,29.90,29.48,26,4,26,1.01
2013-2-27,51.9,40.4,34.4,37.7,31.9,28.6,88,73,46,29.89,29.68,25,3,25,0.03
2013-2-28,35.7,30.9,28.8,29.2,25.6,23.8,90,81,71,30.05,29.81,19,3,19,0.00
2013-3-1,32.9,30.7,28.8,29.0,27.5,25.1,91,88,83,30.04,29.98,14,1,14,0.01
2013-3-2,34.4,29.2,22.6,28.3,25.8,19.0,92,87,74,30.09,29.96,17,2,17,0.02
2013-3-3,28.6,24.4,19.1,20.1,17.6,14.6,87,75,61,30.17,30.06,20,2,20,0.05
2013-3-4,51.5,37.3,22.0,34.1,23.6,11.3,80,59,32,30.25,30.07,14,1,14,0.02
2013-3-5,49.6,39.4,30.0,47.1,35.7,25.3,98,87,66,30.08,29.71,30,2,30,0.81
2013-3-6,30.0,26.8,23.9,26.0,23.9,20.5,93,89,83,30.28,29.85,27,3,30,0.00
2013-3-7,49.6,33.8,24.5,36.3,27.1,22.0,92,78,51,30.35,30.22,13,1,15,0.05
2013-3-8,56.7,38.7,23.5,35.9,23.8,16.4,100,63,22,30.43,30.28,17,1,17,0.00
2013-3-9,67.9,49.1,34.2,36.8,29.1,22.2,70,48,26,30.37,30.17,12,0,12,0.00
2013-3-10,67.5,53.2,42.4,38.3,33.5,30.4,64,48,30,30.24,30.07,15,1,15,0.00
2013-3-11,56.2,52.5,48.5,50.0,47.0,38.0,97,82,58,30.08,29.79,22,2,22,0.97
2013-3-12,50.4,41.9,33.1,47.4,34.9,30.1,96,78,52,30.14,29.81,19,3,19,0.08
2013-3-13,38.4,34.6,27.2,30.5,25.0,17.5,78,68,55,30.33,30.09,24,3,24,0.00
2013-3-14,46.1,35.1,22.6,20.8,16.6,12.4,76,49,30,30.40,30.29,19,2,19,0.00
2013-3-15,66.8,51.3,36.0,43.8,35.5,19.5,78,56,34,30.29,29.92,24,2,24,0.00
2013-3-16,71.8,62.9,56.1,48.6,44.9,40.9,60,52,42,29.92,29.77,24,4,24,0.00
2013-3-17,69.8,61.3,56.5,50.7,46.0,41.4,67,57,42,29.94,29.83,19,2,19,0.00
2013-3-18,59.0,51.9,46.4,50.5,47.3,45.5,97,85,67,29.93,29.82,20,1,20,0.78
2013-3-19,53.1,45.0,36.1,46.4,31.8,13.9,98,64,34,30.15,29.86,24,3,24,0.02
2013-3-20,52.9,40.2,31.5,29.7,16.4,7.8,85,40,24,30.17,29.93,23,2,23,0.00
2013-3-21,34.4,28.4,19.2,24.4,14.3,10.0,76,56,41,30.06,29.92,24,4,24,0.00
2013-3-22,43.8,34.1,25.3,31.0,20.0,12.6,74,56,43,30.14,30.04,5,0,6,0.00
2013-3-23,52.8,43.3,36.0,46.1,38.3,26.2,95,83,58,30.07,29.81,7,0,7,0.07
2013-3-24,54.8,47.3,37.3,50.6,44.7,30.1,98,91,73,29.87,29.44,20,2,22,1.00
2013-3-25,37.3,29.1,25.9,30.8,23.7,21.1,92,80,72,30.07,29.61,21,6,26,0.00
2013-3-26,34.4,28.6,25.2,28.9,25.2,22.1,99,87,75,30.33,30.06,16,1,16,0.13
2013-3-27,43.8,33.9,26.5,27.3,23.9,20.8,92,68,42,30.38,30.29,20,2,20,0.01
2013-3-28,51.9,39.7,29.8,27.6,22.8,17.9,74,53,32,30.38,30.28,19,2,19,0.00
2013-3-29,44.2,37.7,30.6,37.1,29.1,19.4,95,73,45,30.41,30.29,11,0,11,0.16
2013-3-30,61.4,47.4,37.6,48.1,40.4,36.5,98,80,43,30.29,30.04,13,1,13,0.25
2013-3-31,58.9,51.8,47.2,52.2,49.5,46.0,98,92,76,30.05,29.86,14,1,14,0.90
2013-4-1,57.7,50.6,42.8,50.7,42.5,35.6,96,75,53,30.05,29.87,19,2,20,0.02
2013-4-2,55.2,44.5,35.5,35.9,25.7,17.4,80,51,26,30.20,30.04,15,2,15,0.00
2013-4-3,61.3,48.2,37.4,30.8,26.5,20.1,59,44,27,30.26,30.15,13,1,15,0.00
2013-4-4,49.2,40.0,35.8,37.7,34.8,28.2,97,84,44,30.18,30.00,18,1,18,1.08
2013-4-5,58.6,46.8,38.4,44.5,38.3,32.6,98,75,41,30.12,30.00,17,1,17,0.02
2013-4-6,70.0,53.5,37.8,41.8,36.0,33.1,86,55,29,30.25,30.08,15,1,15,0.00
2013-4-7,69.3,57.6,43.9,45.2,40.1,35.2,74,53,38,30.20,30.06,17,2,17,0.00
2013-4-8,72.6,62.1,51.4,52.2,47.9,43.8,79,61,44,30.13,30.03,20,2,20,0.00
2013-4-9,80.0,66.6,55.2,55.6,52.2,49.6,83,62,37,30.18,30.05,18,1,18,0.00
2013-4-10,83.6,69.9,56.2,58.8,54.1,51.4,85,60,34,30.09,29.88,10,1,17,0.00
2013-4-11,75.5,67.8,58.6,61.7,55.6,50.0,95,66,47,29.89,29.63,23,3,23,0.93
2013-4-12,62.9,56.1,48.4,57.9,47.9,37.1,95,76,45,29.95,29.57,29,2,29,0.37
2013-4-13,68.2,55.6,44.5,39.7,35.8,24.3,78,50,22,30.07,29.94,19,2,19,0.00
2013-4-14,67.0,54.3,44.7,48.2,40.4,34.5,91,61,36,30.10,29.93,22,2,25,0.07
2013-4-15,80.8,62.1,50.3,58.4,52.8,48.1,97,75,40,30.14,29.93,13,1,13,0.01
2013-4-16,81.7,66.6,55.3,62.7,57.0,53.1,94,74,44,30.24,30.08,10,1,14,0.07
2013-4-17,78.2,66.9,61.7,66.7,59.9,56.5,93,79,57,30.21,30.09,10,0,10,0.33
2013-4-18,74.0,68.0,60.5,60.3,56.5,53.0,92,68,51,30.07,29.84,21,2,21,0.00
2013-4-19,67.8,57.6,40.1,60.6,51.5,32.9,94,80,69,30.04,29.69,34,4,34,0.68
2013-4-20,57.7,45.0,33.2,33.9,30.3,25.9,83,59,34,30.30,30.03,21,2,21,0.00
2013-4-21,66.3,51.2,38.6,36.8,32.8,28.8,78,52,30,30.42,30.24,13,1,13,0.00
2013-4-22,70.8,55.0,41.1,43.1,38.4,35.7,83,56,31,30.38,30.12,14,1,14,0.00
2013-4-23,75.2,56.9,43.1,48.7,40.0,34.0,77,55,33,30.23,30.05,15,1,15,0.00
2013-4-24,67.3,58.4,45.5,56.7,52.0,42.7,93,80,62,30.16,30.01,22,3,22,0.34
2013-4-25,64.3,49.5,36.5,46.0,35.7,25.4,95,65,26,30.37,30.15,19,1,19,0.00
2013-4-26,71.8,55.4,40.3,42.4,36.1,29.5,75,50,25,30.44,30.26,17,1,17,0.00
2013-4-27,56.9,49.7,46.4,49.8,47.0,41.0,98,91,57,30.37,30.21,14,1,14,1.39
2013-4-28,51.8,50.6,48.8,51.4,49.9,48.0,99,98,96,30.22,29.98,13,1,13,1.80
2013-4-29,71.2,58.6,51.0,58.5,52.6,49.0,99,82,55,30.05,29.90,10,0,10,0.01
2013-4-30,80.0,63.4,50.4,57.8,52.4,48.6,96,70,38,30.08,29.94,11,0,11,0.00
2013-5-1,75.5,64.3,55.5,55.9,52.7,48.6,92,68,44,30.17,30.07,14,1,14,0.00
2013-5-2,68.5,60.2,55.7,56.2,51.8,48.3,82,74,60,30.22,30.12,16,1,16,0.00
2013-5-3,67.5,58.4,53.5,53.7,50.6,48.2,84,76,54,30.16,29.99,22,2,22,0.00
2013-5-4,54.4,51.3,48.9,49.7,46.8,39.1,97,85,66,29.99,29.89,24,2,24,0.61
2013-5-5,54.6,51.0,49.5,53.4,49.9,48.2,100,96,93,29.90,29.76,16,2,16,0.67
2013-5-6,58.7,49.3,43.0,49.8,44.8,42.2,100,85,56,29.92,29.77,18,1,18,0.33
2013-5-7,66.5,52.6,42.0,52.1,45.9,40.7,98,80,48,29.99,29.89,19,1,19,0.01
2013-5-8,67.8,57.6,52.1,58.1,53.4,48.2,96,86,68,30.07,29.92,12,0,12,0.06
2013-5-9,77.0,62.1,49.8,61.7,53.6,48.5,98,76,41,30.14,30.03,12,0,12,0.01
2013-5-10,71.2,63.2,54.6,60.0,54.8,51.7,92,75,63,30.08,29.94,24,2,24,0.00
2013-5-11,70.5,60.7,53.3,61.6,57.1,51.6,98,88,68,29.96,29.86,15,1,15,0.50
2013-5-12,60.9,52.0,44.2,51.6,42.1,31.1,96,71,42,30.14,29.94,18,1,18,0.00
2013-5-13,61.7,49.8,39.1,38.9,34.2,30.3,77,57,35,30.24,30.13,19,1,19,0.00
2013-5-14,75.4,58.6,39.5,53.5,44.5,32.8,85,61,43,30.31,30.07,18,1,18,0.00
2013-5-15,84.3,70.0,56.2,59.8,53.9,49.5,86,59,33,30.15,29.97,18,1,18,0.00
2013-5-16,78.0,68.7,58.4,61.9,57.3,52.4,88,68,53,30.06,29.95,10,0,10,0.00
2013-5-17,75.9,67.5,59.0,63.5,57.6,50.2,91,72,53,30.08,29.99,6,0,6,0.00
2013-5-18,69.8,62.9,58.0,66.6,60.6,54.0,100,92,65,30.08,30.00,6,0,6,0.39
2013-5-19,67.8,63.4,60.9,66.5,62.4,59.8,99,97,92,30.08,29.99,12,0,12,0.13
2013-5-20,81.7,67.3,60.0,70.4,63.3,59.4,99,88,61,30.12,29.98,10,0,10,0.01
2013-5-21,85.8,70.4,62.3,69.4,64.2,60.2,99,83,52,30.04,29.86,16,0,16,0.00
2013-5-22,81.8,67.5,59.7,70.3,62.7,59.0,98,86,56,29.99,29.82,15,0,15,0.18
2013-5-23,75.5,65.6,60.7,63.4,59.0,52.9,99,81,53,29.96,29.86,13,1,13,0.02
2013-5-24,69.5,59.0,50.6,53.8,48.5,39.7,92,70,41,30.27,29.94,12,0,12,0.00
2013-5-25,77.3,58.3,43.4,51.7,43.5,39.4,90,61,29,30.35,30.18,15,0,15,0.00
2013-5-26,75.1,59.5,49.4,57.3,45.7,38.1,93,63,27,30.32,30.17,12,0,12,0.03
2013-5-27,82.5,66.5,52.1,62.3,53.6,45.1,88,65,42,30.27,30.10,14,0,14,0.00
2013-5-28,84.5,70.3,59.5,65.2,58.3,53.9,91,68,38,30.19,30.07,13,0,13,0.00
2013-5-29,83.1,70.8,58.6,67.0,60.4,56.4,97,72,48,30.20,30.08,7,0,7,0.00
2013-5-30,83.0,69.8,59.1,66.0,60.7,56.6,94,74,49,30.25,30.10,10,0,10,0.00
2013-5-31,82.7,70.6,61.9,64.8,60.6,57.8,92,72,46,30.19,30.05,13,0,13,0.00
2013-6-1,83.3,71.8,62.4,66.6,62.8,60.1,96,75,50,30.08,29.96,15,1,15,0.37
2013-6-2,68.3,65.4,62.6,67.5,64.6,61.7,99,97,91,29.98,29.88,9,0,9,1.75
2013-6-3,79.0,67.8,61.4,68.7,62.8,59.5,100,85,56,29.97,29.84,14,0,14,0.01
2013-6-4,82.2,68.1,56.1,65.7,60.2,54.9,98,78,47,30.04,29.94,7,0,7,0.00
2013-6-5,77.8,68.1,62.2,71.4,64.1,60.6,98,87,70,30.04,29.89,17,0,17,0.53
2013-6-6,77.7,67.2,60.6,70.0,64.5,60.0,99,91,74,29.92,29.74,8,0,8,0.00
2013-6-7,81.9,69.4,61.7,69.1,64.7,60.5,98,87,57,29.83,29.65,13,0,13,0.16
2013-6-8,78.0,67.8,60.9,68.1,62.7,59.6,99,85,64,30.06,29.80,6,0,6,0.00
2013-6-9,78.7,67.8,60.7,71.4,64.4,59.3,98,89,74,30.13,29.96,13,0,13,0.14
2013-6-10,76.6,68.1,63.0,67.1,63.6,60.0,98,86,61,29.99,29.89,17,1,21,0.35
2013-6-11,81.8,71.6,63.6,68.7,65.0,61.9,98,81,54,30.01,29.93,14,0,14,0.05
2013-6-12,87.5,76.5,64.5,77.3,69.4,63.3,99,80,58,30.04,29.91,11,0,11,0.00
2013-6-13,84.8,73.7,65.0,71.5,67.8,64.1,97,83,60,29.91,29.66,18,1,18,0.26
2013-6-14,80.5,67.7,56.7,64.3,58.2,53.7,97,74,47,30.03,29.79,14,0,14,0.01
2013-6-15,82.0,68.0,55.3,66.0,58.9,53.0,95,74,49,30.16,30.02,9,0,9,0.00
2013-6-16,84.4,70.0,60.4,67.7,62.5,58.8,96,78,53,30.14,29.98,10,0,10,0.00
2013-6-17,77.9,70.5,66.6,71.4,67.1,64.6,97,89,77,30.03,29.91,6,0,6,0.18
2013-6-18,75.0,66.8,62.4,70.9,65.4,61.2,99,95,82,29.94,29.81,15,0,15,0.48
2013-6-19,82.3,68.0,58.8,70.9,62.9,58.0,100,85,57,30.08,29.91,5,0,5,0.01
2013-6-20,83.5,68.7,61.4,70.6,63.8,60.3,98,86,55,30.20,30.06,7,0,7,0.02
2013-6-21,80.9,69.4,63.7,69.3,64.4,61.3,98,85,55,30.25,30.15,10,0,10,0.00
2013-6-22,84.0,70.6,61.4,68.3,63.6,60.3,100,80,51,30.24,30.07,7,0,7,0.00
2013-6-23,81.9,69.0,60.5,68.8,64.3,59.4,98,86,58,30.20,30.08,7,0,7,0.07
2013-6-24,85.4,72.3,65.1,72.3,67.3,64.3,99,86,55,30.22,30.06,6,0,6,0.00
2013-6-25,80.2,71.7,64.2,74.1,67.4,63.0,98,87,71,30.14,30.01,5,0,5,0.00
2013-6-26,82.8,72.3,65.1,73.4,68.2,64.3,99,88,66,30.06,29.90,12,0,12,0.01
2013-6-27,82.5,71.8,65.4,75.5,68.7,64.2,99,91,71,29.92,29.76,18,1,18,0.25
2013-6-28,85.3,73.8,67.2,72.4,68.3,63.5,99,84,55,29.83,29.62,12,0,12,0.03
2013-6-29,81.0,70.8,63.1,69.1,63.1,57.1,99,78,49,29.69,29.62,12,0,12,0.00
2013-6-30,83.2,70.6,59.1,67.2,61.7,57.4,97,76,45,29.77,29.68,14,0,14,0.00
2013-7-1,80.5,68.6,63.8,69.2,64.8,62.3,97,88,63,29.91,29.73,10,0,10,0.03
2013-7-2,80.0,69.6,63.4,71.3,65.5,62.2,99,87,60,30.07,29.89,7,0,7,0.01
2013-7-3,68.0,64.6,61.6,66.2,63.8,61.3,99,97,90,30.19,30.04,8,0,8,1.69
2013-7-4,72.6,65.3,61.7,71.2,64.8,61.4,100,98,90,30.19,30.09,7,0,7,0.50
2013-7-5,75.0,68.0,63.9,70.2,66.3,63.6,99,94,83,30.20,30.11,7,0,7,0.18
2013-7-6,75.5,69.3,65.2,71.7,67.6,65.0,100,95,78,30.17,30.07,7,0,7,0.99
2013-7-7,76.3,69.8,66.5,71.5,68.1,66.2,100,95,79,30.15,30.07,7,0,7,0.18
2013-7-8,83.9,73.0,66.3,76.3,69.8,66.0,100,90,67,30.18,30.06,4,0,4,0.00
2013-7-9,86.0,73.4,67.1,76.3,70.1,66.5,99,90,60,30.16,30.02,6,0,6,0.53
2013-7-10,83.5,72.7,67.2,76.7,69.8,66.8,100,91,68,30.09,29.91,13,0,13,0.06
2013-7-11,76.5,69.6,68.0,73.2,68.9,67.4,100,98,87,29.95,29.90,1,0,1,0.00
2013-7-12,85.8,75.4,65.8,74.6,68.4,63.5,98,80,61,29.94,29.84,11,0,11,0.00
2013-7-13,79.2,70.4,63.1,69.3,64.7,61.3,96,83,66,30.06,29.92,11,0,11,0.00
2013-7-14,75.4,69.8,66.1,71.2,66.8,63.9,98,91,82,30.21,30.04,13,1,15,0.21
2013-7-15,83.5,74.0,67.2,72.0,67.2,64.3,93,80,62,30.29,30.19,8,0,8,0.00
2013-7-16,89.3,75.6,65.9,75.0,69.0,64.4,97,81,53,30.31,30.18,7,0,7,0.01
2013-7-17,87.8,73.8,66.1,77.8,69.7,63.8,100,88,60,30.30,30.13,7,0,7,0.02
2013-7-18,86.7,70.6,63.4,75.9,67.5,62.8,99,91,65,30.22,30.05,6,0,10,0.77
2013-7-19,87.1,73.3,66.5,75.8,69.8,66.2,100,90,62,30.14,29.95,6,0,6,0.19
2013-7-20,83.6,69.3,67.2,75.2,68.0,66.6,99,96,75,30.02,29.90,1,0,7,0.48
2013-7-21,82.0,70.7,65.8,74.8,68.8,65.5,100,94,75,30.03,29.91,9,0,9,0.06
2013-7-22,81.9,71.2,65.3,72.8,68.0,64.9,100,90,68,29.98,29.82,14,0,14,0.38
2013-7-23,81.4,71.3,64.9,74.2,67.8,64.0,98,89,71,29.92,29.79,13,0,13,0.00
2013-7-24,83.3,73.6,68.2,74.4,68.8,64.9,96,86,65,29.85,29.76,11,0,11,0.01
2013-7-25,84.7,71.4,63.5,72.7,66.0,62.0,99,84,59,30.01,29.83,11,0,11,0.00
2013-7-26,83.8,69.7,60.2,71.9,64.8,59.1,98,85,60,30.09,29.97,10,0,10,0.07
2013-7-27,80.9,69.6,64.0,70.5,65.9,63.3,100,89,58,29.99,29.86,12,0,12,0.00
2013-7-28,78.5,70.0,64.6,70.0,65.4,60.3,98,86,66,30.04,29.87,7,0,7,0.00
2013-7-29,82.8,68.1,59.0,68.4,59.0,50.5,97,75,35,30.18,30.02,11,0,11,0.00
2013-7-30,85.1,66.0,56.5,71.3,60.0,54.8,98,82,53,30.26,30.12,5,0,5,0.01
2013-7-31,73.4,67.8,64.1,70.3,66.0,62.6,98,94,86,30.13,29.96,11,0,11,0.17
2013-8-1,83.0,71.6,65.9,75.3,67.7,63.8,100,88,65,29.98,29.88,12,0,13,0.01
2013-8-2,84.0,70.8,61.4,72.3,65.4,60.6,99,84,62,30.03,29.93,9,0,9,0.01
2013-8-3,80.3,70.8,63.5,71.8,66.2,62.6,99,86,66,30.04,29.98,9,0,9,0.00
2013-8-4,81.3,72.4,66.0,71.9,66.6,60.1,97,83,66,30.03,29.96,11,0,11,0.00
2013-8-5,84.3,70.8,60.4,70.5,63.2,58.3,98,78,51,30.08,29.95,9,0,9,0.00
2013-8-6,84.2,72.6,64.0,73.0,66.5,58.9,93,82,64,30.01,29.91,7,0,7,0.00
2013-8-7,79.3,71.2,68.1,74.0,69.0,66.7,98,93,78,30.03,29.95,7,0,7,0.39
2013-8-8,83.3,72.5,67.7,75.3,70.2,67.4,99,93,68,30.04,29.96,7,0,7,0.06
2013-8-9,84.6,73.9,67.8,77.2,71.0,67.2,100,91,73,30.08,29.97,7,0,7,0.11
2013-8-10,80.3,71.5,68.1,75.7,70.4,67.3,100,96,82,30.12,30.03,15,0,15,0.24
2013-8-11,79.6,71.7,66.9,76.1,70.3,66.6,100,95,83,30.16,30.04,6,0,6,0.05
2013-8-12,82.0,72.6,67.2,76.3,70.0,66.6,100,92,75,30.10,29.96,10,0,10,0.01
2013-8-13,78.8,71.1,67.6,72.8,68.5,65.9,99,92,73,29.96,29.83,13,0,13,0.44
2013-8-14,76.5,68.5,62.2,68.5,64.1,58.7,99,86,66,30.02,29.88,9,0,9,0.00
2013-8-15,78.2,66.3,60.0,67.1,61.7,58.1,98,86,63,30.09,29.97,10,0,10,0.24
2013-8-16,74.7,64.3,57.2,65.5,59.6,56.1,99,86,67,30.11,30.02,9,0,9,0.01
2013-8-17,70.3,63.5,59.9,64.5,60.3,56.2,98,90,79,30.14,30.08,7,0,7,0.07
2013-8-18,73.3,64.9,61.6,69.9,63.9,61.3,100,96,83,30.20,30.09,7,0,7,0.38
2013-8-19,72.7,66.8,63.0,70.1,65.8,62.7,100,97,90,30.18,30.06,5,0,5,0.53
2013-8-20,79.5,69.5,64.4,72.0,67.5,64.1,100,94,73,30.16,30.08,9,0,9,0.44
2013-8-21,72.0,68.1,66.0,70.2,67.4,65.7,100,98,92,30.22,30.12,4,0,4,0.15
2013-8-22,83.7,72.0,64.6,75.6,68.9,64.3,100,91,65,30.19,30.01,9,0,9,0.00
2013-8-23,84.8,71.0,65.1,74.0,67.4,63.5,100,89,62,30.08,29.94,11,0,11,0.06
2013-8-24,84.5,70.4,62.5,73.0,65.2,61.2,99,85,57,30.24,30.05,7,0,7,0.01
2013-8-25,79.6,68.3,58.0,67.7,61.8,55.7,95,81,58,30.36,30.22,7,0,7,0.00
2013-8-26,81.0,68.2,59.0,69.5,62.6,57.6,98,83,58,30.31,30.14,9,0,9,0.00
2013-8-27,81.3,68.7,59.0,71.9,64.6,58.1,99,87,66,30.17,30.03,6,0,6,0.00
2013-8-28,85.0,72.3,63.3,74.9,68.0,62.7,99,87,65,30.07,29.95,4,0,11,0.00
2013-8-29,83.3,74.1,69.2,76.0,70.2,67.4,94,88,73,30.00,29.90,9,0,9,0.00
2013-8-30,86.5,73.6,65.9,74.6,69.2,65.1,99,87,61,30.02,29.89,9,0,9,0.00
2013-8-31,86.0,73.8,67.8,76.4,70.4,67.2,100,90,67,29.97,29.83,10,0,10,0.04
2013-9-1,82.7,71.8,66.8,75.2,68.9,66.5,100,91,70,29.91,29.79,13,0,13,0.04
2013-9-2,82.5,71.9,64.8,73.7,67.8,63.8,99,88,69,29.94,29.82,13,0,13,0.00
2013-9-3,82.8,71.1,61.5,73.8,67.0,60.9,100,88,63,29.98,29.82,10,0,10,0.75
2013-9-4,83.3,69.8,61.6,72.0,65.1,61.0,99,86,60,30.10,29.97,8,0,8,0.00
2013-9-5,83.2,69.9,61.4,73.0,65.6,60.6,99,87,64,30.16,30.05,6,0,6,0.01
2013-9-6,83.0,68.6,58.2,70.3,62.9,56.9,99,83,56,30.19,30.04,5,0,5,0.00
2013-9-7,81.9,69.2,60.5,70.6,64.4,59.4,99,86,58,30.13,30.00,9,0,9,0.01
2013-9-8,82.0,70.0,60.9,71.1,65.2,60.0,99,86,58,30.03,29.93,10,0,10,0.00
2013-9-9,83.5,71.0,62.3,74.2,66.1,61.4,97,86,65,30.19,29.99,7,0,7,0.00
2013-9-10,86.3,77.2,64.6,72.4,68.8,58.2,99,76,56,30.28,30.05,5,0,5,0.00
2013-9-11,84.5,77.9,65.3,74.9,69.8,65.0,100,77,61,30.30,30.02,7,0,7,0.00
2013-9-12,75.2,65.0,0.0,73.5,62.8,-0.2,100,86,78,30.14,29.90,7,0,7,1.04
2013-9-13,75.6,68.5,60.9,68.1,63.4,56.6,100,85,57,29.97,29.80,12,0,12,0.00
2013-9-14,75.8,64.3,49.0,63.1,57.7,43.3,98,80,56,30.10,29.86,5,0,5,0.01
2013-9-15,79.0,64.1,53.8,64.9,58.6,52.8,98,84,54,30.20,30.08,9,0,9,0.01
2013-9-16,81.3,66.4,56.7,69.2,61.3,55.9,99,85,54,30.19,30.07,8,0,8,0.00
2013-9-17,71.1,65.0,60.8,64.1,60.9,57.6,96,87,76,30.21,30.10,8,0,8,0.00
2013-9-18,67.3,61.9,59.0,61.0,58.0,55.1,95,87,76,30.25,30.16,6,0,6,0.00
2013-9-19,80.6,66.3,58.5,68.5,62.0,57.4,99,87,61,30.21,30.06,11,0,11,0.01
2013-9-20,80.7,68.2,61.1,68.9,63.7,60.3,99,87,60,30.09,29.90,9,0,9,0.00
2013-9-21,65.4,62.8,59.0,65.0,62.0,58.2,99,97,92,29.91,29.72,14,0,14,1.37
2013-9-22,74.5,60.5,52.3,61.9,55.8,51.8,100,86,49,29.92,29.78,8,0,8,0.01
2013-9-23,76.9,61.3,52.3,64.3,57.4,51.4,99,88,58,30.06,29.90,6,0,6,0.01
2013-9-24,74.9,62.6,53.9,66.2,59.6,53.1,100,91,69,30.08,29.90,5,0,5,0.00
2013-9-25,62.2,61.0,60.1,61.7,60.4,59.6,99,98,95,29.90,29.83,9,0,9,0.88
2013-9-26,75.3,63.4,58.1,66.7,60.8,56.1,100,92,68,30.04,29.87,7,0,7,0.06
2013-9-27,73.7,61.0,53.9,65.7,57.8,52.8,99,90,61,30.19,30.03,2,0,6,0.01
2013-9-28,73.3,61.3,54.0,62.6,57.6,53.3,100,88,65,30.23,30.11,6,0,6,0.01
2013-9-29,68.3,59.9,54.7,60.5,56.4,53.6,97,89,71,30.15,30.03,6,0,6,0.00
2013-9-30,73.3,61.3,54.7,62.7,57.6,53.8,99,88,65,30.11,29.99,7,0,7,0.00
2013-10-1,75.5,62.3,55.7,63.7,58.9,54.9,99,89,63,30.18,30.05,4,0,6,0.00
2013-10-2,78.7,64.2,56.7,67.6,60.9,56.1,100,90,61,30.21,30.06,5,0,5,0.01
2013-10-3,80.3,66.5,59.6,67.7,62.5,59.0,99,88,58,30.16,30.04,6,0,6,0.00
2013-10-4,80.0,65.7,58.2,67.8,61.7,57.6,99,88,57,30.20,30.07,6,0,6,0.01
2013-10-5,81.0,66.7,57.6,70.2,62.6,56.8,99,88,66,30.17,30.01,5,0,5,0.01
2013-10-6,77.6,66.0,59.0,66.6,61.7,58.3,99,87,61,30.05,29.81,15,0,15,0.13
2013-10-7,67.0,58.4,50.8,62.3,54.5,48.4,98,88,63,30.06,29.78,18,1,18,0.34
2013-10-8,75.0,57.6,45.6,61.6,52.6,44.6,98,85,57,30.16,30.03,6,0,6,0.01
2013-10-9,76.4,60.4,50.3,63.6,55.0,48.9,97,84,57,30.21,30.07,12,0,12,0.00
2013-10-10,71.9,60.4,50.8,61.1,54.2,50.3,99,82,56,30.17,30.03,17,1,17,0.01
2013-10-11,76.2,59.7,48.2,62.8,53.8,47.1,98,83,50,30.11,29.97,11,0,11,0.00
2013-10-12,75.7,60.8,50.8,64.2,56.0,49.7,99,85,58,30.12,29.98,11,0,11,0.01
2013-10-13,72.3,61.7,56.8,63.9,58.5,54.6,96,89,72,30.22,30.09,10,0,10,0.00
2013-10-14,73.0,62.2,55.0,63.0,58.2,54.2,99,88,65,30.24,30.10,9,0,9,0.01
2013-10-15,72.8,61.9,53.9,62.4,57.7,52.4,97,87,67,30.15,30.00,5,0,5,0.01
2013-10-16,65.5,59.4,55.5,60.5,56.8,54.2,97,91,80,30.07,29.95,6,0,6,0.01
2013-10-17,66.0,59.5,53.9,63.2,58.4,52.5,99,96,87,29.98,29.84,15,1,15,0.34
2013-10-18,67.6,55.3,48.7,57.1,51.5,47.9,98,88,64,30.06,29.92,9,0,9,0.01
2013-10-19,61.7,53.4,48.5,55.4,49.7,45.3,99,88,63,30.00,29.90,13,0,13,0.00
2013-10-20,65.8,49.1,37.8,48.8,42.3,36.2,97,79,47,30.13,30.00,7,0,7,0.00
2013-10-21,68.5,52.8,41.5,52.7,45.5,40.3,97,78,42,30.19,30.01,10,0,10,0.01
2013-10-22,67.4,55.5,50.0,54.3,50.0,46.8,97,83,59,30.03,29.83,8,0,8,0.00
2013-10-23,51.9,44.7,33.9,47.5,38.1,29.8,87,78,62,30.15,29.80,21,2,21,0.00
2013-10-24,53.9,42.6,34.1,41.8,35.6,29.7,85,77,56,30.24,30.12,11,0,11,0.00
2013-10-25,52.5,38.7,28.2,35.4,27.7,23.7,85,67,38,30.44,30.22,16,1,16,0.00
2013-10-26,59.1,42.6,27.2,41.8,31.1,24.7,93,67,33,30.41,30.13,13,0,13,0.00
2013-10-27,58.2,52.9,47.8,50.8,46.4,41.2,86,79,71,30.16,30.09,9,0,9,0.00
2013-10-28,64.5,54.5,50.1,56.7,50.9,49.1,98,88,63,30.29,30.13,19,0,19,0.05
2013-10-29,68.0,56.0,49.2,54.1,50.9,48.1,98,84,57,30.38,30.24,7,0,7,0.00
2013-10-30,75.6,61.1,52.5,59.5,54.0,50.0,93,79,53,30.31,30.14,7,0,7,0.00
2013-10-31,66.4,60.9,55.4,60.0,55.7,52.2,94,83,69,30.16,29.74,33,2,33,0.08
2013-11-1,74.2,62.7,52.6,60.3,53.5,42.7,96,74,38,29.81,29.63,30,2,30,0.31
2013-11-2,58.7,50.4,41.5,50.1,42.1,37.6,87,74,54,30.09,29.76,23,1,23,0.01
2013-11-3,61.1,47.4,39.0,40.2,37.9,34.4,89,72,38,30.33,30.07,11,1,11,0.00
2013-11-4,60.0,47.4,38.1,39.5,36.4,34.0,87,67,46,30.49,30.33,2,1,12,0.00
2013-11-5,65.7,50.9,39.6,44.4,37.6,33.2,79,62,39,30.52,30.35,1,0,7,0.00
2013-11-6,67.2,56.7,49.3,53.7,49.9,34.8,89,78,56,30.37,30.10,9,1,15,0.00
2013-11-7,55.5,48.8,36.3,53.6,44.0,30.9,97,84,59,30.27,30.00,19,1,19,0.26
2013-11-8,56.6,42.5,33.5,31.0,25.5,17.8,81,54,25,30.39,30.27,15,1,15,0.00
2013-11-9,52.8,44.1,33.3,34.4,27.3,22.3,71,52,37,30.42,30.27,11,0,11,0.00
2013-11-10,67.0,52.7,44.2,42.3,33.1,25.7,63,48,30,30.32,30.21,7,1,14,0.00
2013-11-11,65.8,50.0,36.4,36.1,30.8,26.8,74,49,29,30.37,30.17,7,0,7,0.00
2013-11-12,51.1,39.2,22.6,38.9,28.0,16.1,92,66,40,30.55,30.12,16,1,16,0.00
2013-11-13,48.3,31.8,20.2,24.6,16.9,13.0,80,57,28,30.67,30.51,6,1,11,0.01
2013-11-14,57.2,43.2,26.1,26.9,21.1,17.5,74,44,25,30.57,30.34,6,0,6,0.00
2013-11-15,45.1,40.0,34.3,44.5,37.4,20.1,98,91,48,30.37,30.23,10,0,10,0.23
2013-11-16,59.4,51.6,44.7,55.8,50.1,44.1,99,95,85,30.27,30.14,9,0,9,0.01
2013-11-17,63.2,57.7,54.9,62.1,56.1,52.6,99,94,89,30.17,29.86,25,2,25,0.57
2013-11-18,64.9,54.4,42.0,61.8,44.2,32.0,96,70,45,30.11,29.84,29,2,29,0.09
2013-11-19,57.1,44.6,35.5,32.5,28.4,23.9,75,55,31,30.23,30.10,9,1,9,0.00
2013-11-20,55.5,44.7,36.6,31.7,28.5,24.9,67,54,37,30.40,30.18,14,1,14,0.00
2013-11-21,55.6,50.6,41.5,52.1,44.8,30.5,95,81,64,30.44,30.33,10,0,10,0.00
2013-11-22,61.3,55.8,52.8,58.0,54.4,51.7,98,95,88,30.34,30.16,19,0,19,0.11
2013-11-23,54.9,43.6,29.7,53.2,39.4,21.2,97,85,66,30.35,30.13,17,2,17,0.01
2013-11-24,42.9,29.7,20.0,22.6,13.8,6.9,78,55,24,30.55,30.35,14,1,14,0.00
2013-11-25,40.4,32.7,24.5,33.0,18.1,11.4,91,56,34,30.56,30.26,7,0,7,0.03
2013-11-26,46.6,41.7,35.0,46.3,41.0,33.1,99,97,91,30.26,29.71,16,1,16,3.03
2013-11-27,38.6,27.2,19.4,37.6,24.5,15.4,96,90,79,30.32,29.74,18,2,18,0.03
2013-11-28,47.1,30.6,18.1,34.6,23.1,15.2,92,75,54,30.53,30.32,7,0,15,0.11
2013-11-29,54.6,38.2,26.1,36.5,29.1,23.1,93,71,47,30.63,30.47,5,0,5,0.00
2013-11-30,53.9,40.9,32.4,32.4,27.3,24.7,76,60,40,30.60,30.37,6,0,6,0.00
2013-12-1,56.4,43.7,33.5,38.2,32.4,26.0,77,65,47,30.37,30.01,10,0,10,0.00
2013-12-2,46.8,43.4,39.5,43.3,38.7,34.1,91,84,70,30.02,29.84,5,0,5,0.01
2013-12-3,51.8,47.6,44.0,50.5,46.5,42.3,98,96,90,29.94,29.86,5,0,5,0.08
2013-12-4,64.3,55.9,49.7,56.6,52.5,48.6,100,89,70,30.04,29.91,18,1,18,0.01
2013-12-5,66.5,60.7,56.0,62.4,58.6,54.6,99,93,81,30.07,29.94,25,1,25,0.34
2013-12-6,67.5,62.8,50.1,62.9,59.8,48.9,97,90,80,30.05,29.88,38,4,38,1.63
2013-12-7,50.0,40.1,36.1,49.2,39.5,35.2,100,97,96,30.38,30.03,6,0,6,0.01
2013-12-8,46.8,42.6,39.3,46.5,42.3,38.8,99,99,98,30.35,30.14,12,1,12,0.91
2013-12-9,53.8,48.8,45.2,53.2,48.3,44.4,100,98,95,30.16,30.00,10,1,13,0.50
2013-12-10,46.5,37.6,28.4,46.0,34.7,18.9,99,89,64,30.42,29.92,20,2,20,0.77
2013-12-11,50.6,36.5,23.4,33.3,23.9,9.7,95,64,23,30.55,30.37,13,1,13,0.00
2013-12-12,41.4,31.6,24.9,23.4,16.5,6.5,81,56,25,30.50,30.39,18,2,18,0.00
2013-12-13,46.5,35.4,23.2,27.5,20.1,12.6,78,55,39,30.46,30.21,5,0,5,0.00
2013-12-14,49.6,43.2,38.2,48.4,38.6,23.8,99,85,53,30.23,29.80,19,1,19,0.79
2013-12-15,48.5,32.1,26.2,46.3,30.0,24.1,100,92,85,30.26,29.81,12,3,23,0.03
2013-12-16,52.7,35.9,23.1,38.5,28.5,21.9,97,77,43,30.35,30.16,16,1,16,0.01
2013-12-17,57.9,44.2,34.4,38.7,32.2,23.9,81,64,42,30.23,30.02,25,2,25,0.00
2013-12-18,50.2,37.4,27.7,24.4,14.7,3.8,75,44,18,30.37,30.18,18,2,18,0.00
2013-12-19,59.0,44.1,30.2,30.6,22.4,11.2,58,43,30,30.42,30.20,6,0,6,0.00
2013-12-20,56.4,48.2,39.2,47.6,34.3,26.1,82,59,47,30.27,30.14,9,0,9,0.00
2013-12-21,66.8,59.6,51.8,61.5,55.8,46.1,95,87,79,30.14,29.85,34,3,34,0.15
2013-12-22,67.3,56.7,50.9,61.8,54.7,50.4,99,94,75,30.10,29.82,28,2,28,2.50
2013-12-23,50.9,42.9,30.0,50.6,41.1,27.8,99,93,85,30.31,30.03,10,2,17,0.18
2013-12-24,30.1,26.4,21.2,28.2,21.6,15.3,93,82,72,30.51,30.30,13,2,18,0.00
2013-12-25,44.2,30.1,18.9,26.9,20.7,16.0,91,70,46,30.58,30.38,4,0,6,0.00
2013-12-26,49.2,34.8,25.9,31.7,24.1,20.5,86,67,39,30.45,30.32,16,1,16,0.00
2013-12-27,53.5,37.9,27.1,33.5,27.3,23.2,92,67,42,30.54,30.37,7,0,7,0.00
2013-12-28,40.9,35.3,30.0,38.8,30.9,25.2,96,84,71,30.47,30.06,14,0,20,0.62
2013-12-29,48.9,42.5,37.7,44.7,39.9,31.8,98,91,75,30.08,29.88,15,2,15,0.70
2013-12-30,42.7,38.7,33.3,38.4,35.6,31.5,94,89,82,30.23,30.04,12,1,12,0.00
2013-12-31,40.5,33.9,29.4,32.0,22.0,14.9,94,63,41,30.45,30.21,21,1,21,0.00
2014-1-1,45.9,35.5,28.2,29.4,24.9,21.4,81,66,44,30.44,30.17,6,0,6,0.00
2014-1-2,41.8,32.7,15.9,41.1,29.6,13.0,98,88,70,30.18,29.76,23,2,23,0.44